Time;durP1;ratioP1;P1;durP2;ratioP2;P2;SDS_P1;SDS_P2;PMS_P1;PMS_P2;Temp;Humidity;BMP_temperature;BMP_pressure;BME280_temperature;BME280_humidity;BME280_pressure;Samples;Min_cycle;Max_cycle;Signal;HPM_P1;HPM_P2
2022/03/02 00:00:51;;;;;;;14.35;7.53;;;;;;;4.10;45.13;97971.84;4913305;28;20183;-84
2022/03/02 00:03:16;;;;;;;15.13;7.25;;;;;;;4.19;46.21;97978.47;4898636;28;20369;-84
2022/03/02 00:05:41;;;;;;;13.73;6.82;;;;;;;4.25;46.24;97976.91;4898518;28;20731;-84
2022/03/02 00:08:07;;;;;;;15.05;7.30;;;;;;;4.25;45.97;97971.75;4894983;28;20236;-84
2022/03/02 00:10:32;;;;;;;14.18;6.95;;;;;;;4.30;46.48;97966.84;4912282;28;20640;-84
2022/03/02 00:12:58;;;;;;;15.48;6.60;;;;;;;4.18;45.48;97965.75;4914385;28;20293;-84
2022/03/02 00:15:24;;;;;;;11.95;6.43;;;;;;;4.25;45.33;97972.56;4910538;28;20375;-84
2022/03/02 00:17:50;;;;;;;16.83;8.13;;;;;;;4.28;44.70;97976.56;4909561;28;20284;-84
2022/03/02 00:20:16;;;;;;;17.20;8.35;;;;;;;4.28;44.28;97967.06;4917223;28;20588;-84
2022/03/02 00:22:41;;;;;;;9.27;5.20;;;;;;;4.27;43.94;97957.72;4898108;28;20206;-84
2022/03/02 00:25:08;;;;;;;11.35;5.78;;;;;;;4.39;44.71;97955.44;4907931;28;20178;-84
2022/03/02 00:27:34;;;;;;;11.60;5.80;;;;;;;4.36;43.41;97940.34;4913856;28;20600;-84
2022/03/02 00:30:00;;;;;;;13.48;6.80;;;;;;;4.47;44.50;97950.16;4936687;28;20280;-84
2022/03/02 00:32:25;;;;;;;17.17;8.75;;;;;;;4.55;44.04;97944.06;4896981;28;20324;-84
2022/03/02 00:34:50;;;;;;;18.55;9.65;;;;;;;4.54;43.22;97945.06;4937209;28;20294;-84
2022/03/02 00:37:16;;;;;;;11.98;6.32;;;;;;;4.49;42.86;97940.47;4920210;28;20204;-84
2022/03/02 00:39:42;;;;;;;13.32;7.13;;;;;;;4.54;42.87;97946.84;4913317;28;20283;-84
2022/03/02 00:42:09;;;;;;;16.90;8.75;;;;;;;4.59;42.52;97949.66;4889509;28;20679;-84
2022/03/02 00:44:35;;;;;;;12.38;6.53;;;;;;;4.61;43.34;97939.94;4910322;28;20217;-84
2022/03/02 00:47:00;;;;;;;10.52;5.70;;;;;;;4.67;42.07;97941.78;4899592;28;20505;-84
2022/03/02 00:49:27;;;;;;;9.68;5.43;;;;;;;4.67;42.52;97940.00;4920700;28;20289;-84
2022/03/02 00:51:56;;;;;;;10.70;5.90;;;;;;;4.63;43.13;97941.38;4924755;28;20714;-84
2022/03/02 00:54:21;;;;;;;12.60;5.85;;;;;;;4.74;42.66;97949.56;4915445;28;20280;-84
2022/03/02 00:56:47;;;;;;;11.07;5.38;;;;;;;4.71;43.17;97950.72;4898189;28;20095;-84
2022/03/02 00:59:12;;;;;;;11.60;6.25;;;;;;;4.74;43.20;97944.41;4913412;28;20691;-84
2022/03/02 01:01:38;;;;;;;10.68;5.47;;;;;;;4.70;43.27;97941.41;4894299;28;20400;-84
2022/03/02 01:04:03;;;;;;;12.00;6.18;;;;;;;4.64;43.96;97932.66;4888062;28;20185;-84
2022/03/02 01:06:28;;;;;;;11.38;6.25;;;;;;;4.68;44.23;97935.66;4908830;28;20210;-84
2022/03/02 01:08:54;;;;;;;13.77;7.20;;;;;;;4.69;44.98;97945.78;4893779;28;20467;-84
2022/03/02 01:11:19;;;;;;;10.98;5.55;;;;;;;4.55;44.97;97926.03;4911310;28;20321;-84
2022/03/02 01:13:46;;;;;;;13.52;5.63;;;;;;;4.53;44.60;97935.72;4909833;28;20252;-84
2022/03/02 01:16:13;;;;;;;11.05;5.80;;;;;;;4.29;46.10;97940.28;4911566;28;20344;-85
2022/03/02 01:18:38;;;;;;;15.30;6.93;;;;;;;4.15;46.86;97935.19;4911406;28;20247;-84
2022/03/02 01:21:04;;;;;;;10.27;5.93;;;;;;;4.11;46.56;97930.41;4891422;28;20300;-84
2022/03/02 01:23:29;;;;;;;13.00;6.00;;;;;;;4.08;46.79;97930.00;4915050;28;20376;-84
2022/03/02 01:25:54;;;;;;;14.35;6.88;;;;;;;4.01;47.52;97919.63;4923178;28;20938;-84
2022/03/02 01:28:20;;;;;;;12.45;5.75;;;;;;;3.94;46.96;97913.56;4912938;28;20271;-85
2022/03/02 01:30:45;;;;;;;11.80;5.53;;;;;;;3.92;46.85;97916.38;4929000;28;20284;-85
2022/03/02 01:33:11;;;;;;;10.32;5.30;;;;;;;3.96;46.43;97905.66;4912992;28;20655;-84
2022/03/02 01:35:36;;;;;;;10.43;5.32;;;;;;;3.97;46.04;97907.28;4911353;28;20214;-84
2022/03/02 01:38:02;;;;;;;11.60;5.25;;;;;;;3.99;45.11;97906.09;4915711;28;20102;-84
2022/03/02 01:40:27;;;;;;;14.52;5.88;;;;;;;3.98;45.49;97901.16;4900502;28;20536;-85
2022/03/02 01:42:52;;;;;;;11.80;6.22;;;;;;;3.87;46.70;97894.69;4917339;28;20336;-85
2022/03/02 01:45:18;;;;;;;11.80;5.65;;;;;;;3.85;47.07;97896.66;4929682;28;20196;-85
2022/03/02 01:47:44;;;;;;;12.00;6.20;;;;;;;3.86;47.17;97896.47;4900736;28;20166;-85
2022/03/02 01:50:11;;;;;;;11.27;5.20;;;;;;;3.76;47.50;97883.09;4931967;28;20178;-85
2022/03/02 01:52:37;;;;;;;13.02;5.57;;;;;;;3.79;47.57;97887.88;4906615;28;20217;-85
2022/03/02 01:55:04;;;;;;;10.68;4.75;;;;;;;3.77;46.44;97869.25;4917089;28;20647;-84
2022/03/02 01:57:29;;;;;;;8.32;5.13;;;;;;;3.90;45.25;97882.22;4932520;28;20178;-84
2022/03/02 01:59:55;;;;;;;9.80;5.00;;;;;;;3.93;45.07;97884.44;4910399;28;20218;-84
2022/03/02 02:02:20;;;;;;;10.50;5.82;;;;;;;3.99;46.09;97876.97;4925184;28;20706;-84
2022/03/02 02:04:46;;;;;;;12.20;5.35;;;;;;;4.02;45.81;97879.19;4915264;28;20171;-84
2022/03/02 02:07:12;;;;;;;10.93;5.32;;;;;;;3.98;46.00;97877.97;4932419;28;20079;-84
2022/03/02 02:09:37;;;;;;;10.75;5.95;;;;;;;3.93;46.59;97868.19;4916433;28;20291;-84
2022/03/02 02:12:03;;;;;;;10.95;5.47;;;;;;;3.88;45.64;97876.47;4916860;28;20287;-84
2022/03/02 02:14:28;;;;;;;11.75;5.05;;;;;;;3.90;45.63;97873.72;4896099;28;20193;-84
2022/03/02 02:16:54;;;;;;;9.73;5.28;;;;;;;3.90;45.75;97869.34;4897254;28;20690;-84
2022/03/02 02:19:19;;;;;;;10.85;5.75;;;;;;;3.89;46.25;97859.22;4898784;28;20248;-84
2022/03/02 02:21:46;;;;;;;9.23;5.32;;;;;;;3.87;46.78;97868.94;4909959;28;20173;-83
2022/03/02 02:24:13;;;;;;;11.63;4.72;;;;;;;3.79;46.68;97871.63;4897608;28;20102;-84
2022/03/02 02:26:39;;;;;;;8.43;4.93;;;;;;;3.86;46.53;97864.78;4912945;28;20158;-84
2022/03/02 02:29:05;;;;;;;10.45;4.97;;;;;;;3.84;46.65;97864.13;4917156;28;20289;-84
2022/03/02 02:31:30;;;;;;;8.45;5.40;;;;;;;3.75;47.19;97866.03;4900245;28;20366;-84
2022/03/02 02:33:56;;;;;;;8.90;5.50;;;;;;;3.64;46.84;97863.97;4929536;28;20216;-84
2022/03/02 02:36:22;;;;;;;11.93;5.35;;;;;;;3.65;47.22;97868.13;4916076;28;20298;-83
2022/03/02 02:38:47;;;;;;;11.35;5.60;;;;;;;3.55;47.56;97846.03;4899808;28;20668;-84
2022/03/02 02:41:15;;;;;;;11.43;6.15;;;;;;;3.55;47.90;97851.19;4916201;28;20290;-84
2022/03/02 02:43:42;;;;;;;10.25;5.20;;;;;;;3.55;47.40;97842.69;4911238;28;20377;-84
2022/03/02 02:46:09;;;;;;;10.57;5.53;;;;;;;3.56;47.92;97842.50;4911705;28;20239;-84
2022/03/02 02:48:34;;;;;;;11.27;5.90;;;;;;;3.57;47.79;97843.28;4909125;28;20658;-84
2022/03/02 02:51:00;;;;;;;9.43;4.90;;;;;;;3.67;46.96;97832.69;4896703;28;20248;-84
2022/03/02 02:53:25;;;;;;;10.55;5.32;;;;;;;3.61;46.17;97820.53;4913536;28;20258;-83
2022/03/02 02:55:52;;;;;;;13.65;7.15;;;;;;;3.49;45.90;97828.75;4916561;28;20204;-84
2022/03/02 02:58:17;;;;;;;11.50;5.75;;;;;;;3.47;47.05;97828.13;4939503;28;20153;-84
2022/03/02 03:00:45;;;;;;;11.00;6.18;;;;;;;3.32;48.66;97822.22;4912733;28;20261;-83
2022/03/02 03:03:10;;;;;;;11.95;6.25;;;;;;;3.29;49.15;97814.88;4915312;28;20295;-84
2022/03/02 03:05:36;;;;;;;11.68;6.22;;;;;;;3.29;48.57;97813.09;4911036;28;20288;-84
2022/03/02 03:08:08;;;;;;;11.23;6.25;;;;;;;3.16;48.53;97811.16;4900276;28;20519;-84
2022/03/02 03:10:33;;;;;;;13.00;6.65;;;;;;;3.25;48.31;97809.28;4899919;28;20394;-84
2022/03/02 03:13:00;;;;;;;13.40;6.25;;;;;;;3.20;48.64;97814.16;4915871;28;20217;-83
2022/03/02 03:15:25;;;;;;;12.05;5.88;;;;;;;3.16;49.39;97806.03;4904751;28;20198;-83
2022/03/02 03:17:52;;;;;;;10.80;5.80;;;;;;;3.15;49.50;97804.44;4914515;28;20608;-83
2022/03/02 03:20:21;;;;;;;12.77;6.78;;;;;;;3.03;49.00;97794.78;4899347;28;20201;-83
2022/03/02 03:22:48;;;;;;;12.13;6.40;;;;;;;3.04;49.83;97789.47;4896960;28;20273;-83
2022/03/02 03:25:14;;;;;;;10.35;6.38;;;;;;;3.10;49.55;97786.19;4899198;28;20210;-83
2022/03/02 03:27:40;;;;;;;10.82;5.82;;;;;;;3.09;48.91;97784.56;4900252;28;20076;-83
2022/03/02 03:30:08;;;;;;;12.75;6.47;;;;;;;3.10;48.91;97790.50;4915880;28;20209;-83
2022/03/02 03:32:34;;;;;;;11.93;5.70;;;;;;;3.14;48.62;97799.47;4915845;28;20252;-83
2022/03/02 03:34:59;;;;;;;11.10;5.40;;;;;;;3.22;49.00;97789.06;4894299;28;20289;-83
2022/03/02 03:37:25;;;;;;;10.73;5.53;;;;;;;3.27;48.17;97791.88;4909959;28;20166;-83
2022/03/02 03:39:51;;;;;;;11.60;6.80;;;;;;;3.30;48.70;97786.38;4900023;28;20347;-83
2022/03/02 03:42:16;;;;;;;11.52;6.28;;;;;;;3.27;49.54;97788.50;4916761;28;20268;-82
2022/03/02 03:44:42;;;;;;;12.27;6.20;;;;;;;3.27;49.70;97781.59;4920550;28;20620;-83
2022/03/02 03:47:07;;;;;;;10.57;5.07;;;;;;;3.24;49.46;97789.69;4915928;28;20185;-83
2022/03/02 03:49:33;;;;;;;12.63;5.25;;;;;;;3.27;49.39;97788.50;4908999;28;20320;-83
2022/03/02 03:51:59;;;;;;;11.45;5.60;;;;;;;3.26;48.34;97789.50;4897444;28;20189;-83
2022/03/02 03:54:24;;;;;;;10.80;5.38;;;;;;;3.25;48.39;97787.91;4923382;28;20357;-83
2022/03/02 03:56:50;;;;;;;9.57;4.97;;;;;;;3.27;47.80;97798.81;4919048;28;20652;-82
2022/03/02 03:59:15;;;;;;;9.60;4.93;;;;;;;3.30;47.77;97788.94;4916014;28;20243;-82
2022/03/02 04:01:40;;;;;;;12.02;5.80;;;;;;;3.29;49.04;97787.38;4931636;28;20196;-82
2022/03/02 04:04:06;;;;;;;9.50;4.97;;;;;;;3.32;48.33;97781.03;4897470;28;20210;-83
2022/03/02 04:06:31;;;;;;;13.48;5.55;;;;;;;3.33;48.37;97785.22;4931708;28;20227;-82
2022/03/02 04:08:57;;;;;;;10.40;5.65;;;;;;;3.34;48.25;97781.66;4897683;28;20656;-82
2022/03/02 04:11:22;;;;;;;10.88;5.22;;;;;;;3.38;47.31;97791.41;4895269;28;20648;-83
2022/03/02 04:13:48;;;;;;;9.85;4.93;;;;;;;3.35;47.08;97780.69;4915786;28;20233;-82
2022/03/02 04:16:13;;;;;;;9.73;5.03;;;;;;;3.33;46.97;97780.88;4897917;28;20656;-82
2022/03/02 04:18:39;;;;;;;9.32;4.55;;;;;;;3.36;47.23;97775.34;4907620;28;20088;-82
2022/03/02 04:21:05;;;;;;;9.73;5.53;;;;;;;3.40;46.67;97767.28;4907286;28;20343;-82
2022/03/02 04:23:31;;;;;;;9.05;4.82;;;;;;;3.47;46.45;97774.06;4931339;28;20279;-82
2022/03/02 04:25:56;;;;;;;10.50;5.63;;;;;;;3.30;46.96;97765.00;4917261;28;20689;-82
2022/03/02 04:28:22;;;;;;;10.50;5.53;;;;;;;3.26;48.17;97759.41;4897638;28;20213;-82
2022/03/02 04:30:47;;;;;;;10.25;5.45;;;;;;;3.23;48.25;97759.78;4927936;28;20178;-82
2022/03/02 04:33:13;;;;;;;10.50;6.00;;;;;;;3.17;49.25;97763.06;4910543;28;20170;-82
2022/03/02 04:35:40;;;;;;;9.70;5.38;;;;;;;3.09;48.88;97755.47;4929526;28;20271;-82
2022/03/02 04:38:06;;;;;;;11.85;6.25;;;;;;;3.08;48.90;97753.88;4914986;28;20189;-82
2022/03/02 04:40:32;;;;;;;11.50;5.65;;;;;;;2.95;48.27;97759.69;4931322;28;20208;-82
2022/03/02 04:42:57;;;;;;;13.57;6.38;;;;;;;2.84;48.33;97747.28;4900267;28;20765;-82
2022/03/02 04:45:27;;;;;;;14.57;6.93;;;;;;;2.81;49.50;97763.84;4931008;28;20292;-82
2022/03/02 04:47:54;;;;;;;14.32;6.60;;;;;;;2.77;50.16;97760.84;4902184;28;20282;-82
2022/03/02 04:50:20;;;;;;;14.05;6.82;;;;;;;2.83;50.41;97763.69;4900824;28;20261;-82
2022/03/02 04:52:47;;;;;;;14.50;7.75;;;;;;;2.83;49.77;97753.38;4931247;28;20291;-82
2022/03/02 04:55:13;;;;;;;15.73;6.70;;;;;;;2.86;50.34;97745.31;4904189;28;20161;-82
2022/03/02 04:57:47;;;;;;;13.45;6.60;;;;;;;2.73;50.35;97761.41;4915096;28;20264;-82
2022/03/02 05:00:16;;;;;;;11.07;6.30;;;;;;;2.75;50.34;97762.81;4901418;28;20227;-82
2022/03/02 05:02:42;;;;;;;10.60;5.88;;;;;;;2.76;50.59;97759.28;4913853;28;20738;-82
2022/03/02 05:05:12;;;;;;;13.20;5.90;;;;;;;2.75;51.11;97756.88;4900463;28;20218;-82
2022/03/02 05:07:39;;;;;;;10.10;5.13;;;;;;;2.79;50.80;97753.78;4933460;28;20438;-81
2022/03/02 05:10:05;;;;;;;9.52;4.90;;;;;;;2.75;50.75;97749.94;4914389;28;20216;-82
2022/03/02 05:12:31;;;;;;;13.10;5.82;;;;;;;2.81;50.29;97761.28;4918774;28;20230;-82
2022/03/02 05:14:57;;;;;;;9.82;5.43;;;;;;;2.86;50.78;97768.47;4903315;28;20292;-82
2022/03/02 05:17:23;;;;;;;10.55;5.70;;;;;;;2.86;51.18;97758.97;4914504;28;20725;-82
2022/03/02 05:19:48;;;;;;;12.18;6.22;;;;;;;2.87;51.38;97755.44;4904019;28;20291;-82
2022/03/02 05:22:14;;;;;;;10.20;6.07;;;;;;;2.84;50.43;97760.94;4917637;28;20239;-82
2022/03/02 05:24:40;;;;;;;13.38;5.70;;;;;;;2.90;50.45;97755.06;4929194;28;20272;-82
2022/03/02 05:27:06;;;;;;;10.50;5.55;;;;;;;2.85;51.40;97747.09;4937132;28;20273;-81
2022/03/02 05:29:31;;;;;;;11.30;5.95;;;;;;;2.88;50.55;97751.91;4920801;28;20634;-82
2022/03/02 05:31:57;;;;;;;11.57;5.75;;;;;;;2.79;50.54;97743.50;4917700;28;20212;-82
2022/03/02 05:34:22;;;;;;;13.60;6.03;;;;;;;2.84;50.53;97755.00;4929947;28;20182;-82
2022/03/02 05:36:48;;;;;;;17.95;7.07;;;;;;;2.77;50.34;97755.72;4913731;28;20556;-82
2022/03/02 05:39:13;;;;;;;14.52;6.55;;;;;;;2.74;50.94;97750.94;4932899;28;20352;-82
2022/03/02 05:41:39;;;;;;;14.05;6.97;;;;;;;2.74;50.80;97756.09;4903383;28;20189;-82
2022/03/02 05:44:05;;;;;;;15.82;6.97;;;;;;;2.77;50.44;97747.19;4897777;28;20170;-82
2022/03/02 05:46:31;;;;;;;15.52;7.05;;;;;;;2.76;50.26;97753.31;4919574;28;20264;-82
2022/03/02 05:48:56;;;;;;;12.63;7.07;;;;;;;2.71;50.05;97746.16;4918039;28;20612;-82
2022/03/02 05:51:22;;;;;;;14.07;7.05;;;;;;;2.81;50.56;97751.81;4908886;28;20178;-82
2022/03/02 05:53:47;;;;;;;17.17;7.85;;;;;;;2.87;50.01;97744.34;4922311;28;20702;-82
2022/03/02 05:56:13;;;;;;;14.13;7.10;;;;;;;2.87;50.19;97752.06;4918737;28;20200;-82
2022/03/02 05:58:38;;;;;;;10.73;6.43;;;;;;;2.83;49.52;97749.06;4934367;28;20221;-82
2022/03/02 06:01:03;;;;;;;13.55;6.95;;;;;;;2.54;50.42;97742.97;4933254;28;20083;-82
2022/03/02 06:03:29;;;;;;;27.52;13.23;;;;;;;2.51;50.66;97750.25;4916856;28;20353;-82
2022/03/02 06:05:55;;;;;;;35.72;21.70;;;;;;;2.59;49.90;97752.72;4900766;28;20608;-82
2022/03/02 06:08:20;;;;;;;10.45;6.90;;;;;;;2.72;49.76;97752.88;4916652;28;20612;-82
2022/03/02 06:10:47;;;;;;;14.90;7.05;;;;;;;2.83;48.64;97753.38;4899018;28;20159;-82
2022/03/02 06:13:14;;;;;;;10.13;5.50;;;;;;;2.97;48.58;97755.94;4914072;28;20311;-82
2022/03/02 06:15:40;;;;;;;13.00;5.63;;;;;;;3.09;48.53;97740.03;4916352;28;20379;-82
2022/03/02 06:18:06;;;;;;;10.50;5.93;;;;;;;3.11;48.71;97738.88;4934818;28;20687;-82
2022/03/02 06:20:31;;;;;;;12.25;6.97;;;;;;;3.18;48.80;97744.09;4933976;28;20323;-82
2022/03/02 06:22:58;;;;;;;14.27;6.63;;;;;;;3.18;49.21;97752.59;4956399;28;20658;-82
2022/03/02 06:25:24;;;;;;;12.85;6.18;;;;;;;3.25;47.76;97759.59;4915858;28;20209;-82
2022/03/02 06:27:49;;;;;;;15.85;7.53;;;;;;;3.25;47.92;97757.03;4916178;28;20221;-82
2022/03/02 06:30:15;;;;;;;13.27;8.52;;;;;;;3.26;48.58;97750.91;4915964;28;20319;-82
2022/03/02 06:32:40;;;;;;;14.95;6.85;;;;;;;3.20;48.01;97757.56;4912642;28;20262;-83
2022/03/02 06:35:07;;;;;;;13.65;7.13;;;;;;;3.30;48.35;97765.00;4913342;28;20341;-83
2022/03/02 06:37:33;;;;;;;12.07;7.50;;;;;;;3.28;48.24;97764.38;4917207;28;20177;-83
2022/03/02 06:40:06;;;;;;;10.45;5.82;;;;;;;3.11;48.24;97772.31;4905953;28;20250;-83
2022/03/02 06:42:41;;;;;;;9.48;4.53;;;;;;;3.18;48.52;97768.03;4914452;28;20150;-82
2022/03/02 06:45:11;;;;;;;10.27;5.57;;;;;;;3.25;48.70;97762.97;4929719;28;20283;-83
2022/03/02 06:48:07;;;;;;;9.65;5.05;;;;;;;3.27;48.17;97763.56;4915859;28;20201;-83
2022/03/02 06:50:34;;;;;;;10.82;5.45;;;;;;;3.48;47.73;97775.69;4932952;28;20269;-83
2022/03/02 06:53:01;;;;;;;10.32;5.72;;;;;;;3.47;47.98;97768.91;4900501;28;20312;-83
2022/03/02 06:55:29;;;;;;;9.98;5.25;;;;;;;3.55;48.53;97773.16;4916490;28;20336;-84
2022/03/02 06:57:56;;;;;;;8.88;5.22;;;;;;;3.59;47.70;97768.44;4900224;28;20771;-83
2022/03/02 07:00:23;;;;;;;13.68;6.18;;;;;;;3.68;47.85;97773.25;4916135;28;20690;-83
2022/03/02 07:03:03;;;;;;;11.30;5.53;;;;;;;3.53;48.28;97765.63;4915936;28;20268;-82
2022/03/02 07:05:28;;;;;;;10.80;5.35;;;;;;;3.86;48.40;97774.63;4927733;28;20717;-83
2022/03/02 07:07:54;;;;;;;12.88;6.43;;;;;;;3.90;48.33;97771.47;4912781;28;20437;-83
2022/03/02 07:10:20;;;;;;;10.63;6.50;;;;;;;3.96;48.33;97769.13;4912201;28;20297;-83
2022/03/02 07:12:45;;;;;;;11.45;6.10;;;;;;;3.97;48.89;97768.16;4898223;28;20631;-83
2022/03/02 07:15:12;;;;;;;12.43;5.88;;;;;;;4.05;48.22;97768.81;4930537;28;20216;-83
2022/03/02 07:17:37;;;;;;;11.73;6.35;;;;;;;4.13;47.55;97775.59;4915762;28;20279;-83
2022/03/02 07:20:04;;;;;;;10.00;5.78;;;;;;;4.15;46.68;97773.63;4894327;28;20619;-83
2022/03/02 07:22:36;;;;;;;12.85;6.93;;;;;;;4.10;46.71;97776.78;4927026;28;21169;-83
2022/03/02 07:25:07;;;;;;;11.57;7.68;;;;;;;4.23;46.33;97770.91;4918823;28;20157;-83
2022/03/02 07:27:37;;;;;;;11.27;6.57;;;;;;;4.29;46.82;97767.56;4916475;28;20224;-83
2022/03/02 07:30:03;;;;;;;23.15;11.75;;;;;;;4.48;44.99;97762.72;4914895;28;20217;-83
2022/03/02 07:32:33;;;;;;;20.73;11.10;;;;;;;4.52;45.68;97753.59;4914842;28;20161;-83
2022/03/02 07:35:01;;;;;;;15.05;7.95;;;;;;;4.59;45.53;97743.31;4913982;28;20189;-83
2022/03/02 07:37:28;;;;;;;13.52;7.22;;;;;;;4.75;45.73;97753.34;4911278;28;20298;-83
2022/03/02 07:39:54;;;;;;;13.20;7.50;;;;;;;4.84;46.07;97753.97;4898539;28;20307;-84
2022/03/02 07:42:19;;;;;;;65.28;31.05;;;;;;;4.82;44.66;97759.31;4895312;28;20775;-84
2022/03/02 07:44:47;;;;;;;29.67;16.15;;;;;;;4.90;44.72;97760.94;4889281;28;20178;-84
2022/03/02 07:47:13;;;;;;;30.63;15.82;;;;;;;4.96;45.57;97761.94;4914703;28;20197;-84
2022/03/02 07:49:38;;;;;;;38.92;19.15;;;;;;;5.03;46.42;97763.53;4891337;28;20190;-84
2022/03/02 07:52:07;;;;;;;50.92;24.58;;;;;;;5.09;46.08;97767.16;4914521;28;20509;-84
2022/03/02 07:54:41;;;;;;;23.13;11.23;;;;;;;5.02;45.92;97754.22;4930649;28;20189;-84
2022/03/02 07:57:08;;;;;;;10.30;6.93;;;;;;;5.15;45.44;97763.00;4891735;28;20691;-84
2022/03/02 07:59:39;;;;;;;9.85;5.32;;;;;;;5.10;45.37;97760.19;4893925;28;20284;-84
2022/03/02 08:02:07;;;;;;;14.10;6.80;;;;;;;5.22;45.00;97756.06;4904093;28;20113;-84
2022/03/02 08:04:32;;;;;;;11.05;5.50;;;;;;;5.26;45.27;97749.53;4903079;28;20638;-84
2022/03/02 08:06:58;;;;;;;15.20;6.75;;;;;;;5.21;45.25;97759.66;4891779;28;20170;-85
2022/03/02 08:09:23;;;;;;;13.15;6.88;;;;;;;5.22;44.71;97763.78;4894735;28;20395;-84
2022/03/02 08:11:49;;;;;;;9.65;5.60;;;;;;;5.24;44.13;97764.41;4898621;28;20297;-85
2022/03/02 08:14:17;;;;;;;10.27;5.53;;;;;;;5.34;44.47;97761.44;4911493;28;20330;-85
2022/03/02 08:16:45;;;;;;;9.55;5.22;;;;;;;5.30;44.38;97760.25;4891406;28;20239;-85
2022/03/02 08:19:11;;;;;;;11.07;6.03;;;;;;;5.39;44.39;97744.38;4913338;28;20197;-85
2022/03/02 08:21:36;;;;;;;10.98;6.03;;;;;;;5.32;44.48;97748.72;4913973;28;20224;-85
2022/03/02 08:24:04;;;;;;;10.00;5.93;;;;;;;5.49;43.98;97753.53;4896463;28;20291;-85
2022/03/02 08:26:34;;;;;;;11.63;6.80;;;;;;;5.58;43.86;97747.16;4888854;28;20217;-85
2022/03/02 08:29:19;;;;;;;10.35;5.78;;;;;;;5.51;43.29;97746.38;4930694;28;20230;-86
2022/03/02 08:31:47;;;;;;;11.85;6.00;;;;;;;5.72;43.25;97747.97;4895091;28;20648;-86
2022/03/02 08:34:13;;;;;;;11.35;7.05;;;;;;;5.72;43.14;97741.00;4895165;28;20080;-86
2022/03/02 08:36:42;;;;;;;9.05;5.90;;;;;;;5.62;43.23;97738.84;4897204;28;20651;-86
2022/03/02 08:39:10;;;;;;;12.35;5.60;;;;;;;5.69;43.36;97736.25;4894619;28;20081;-85
2022/03/02 08:41:36;;;;;;;12.82;5.82;;;;;;;5.69;43.23;97733.69;4910712;28;20267;-86
2022/03/02 08:44:02;;;;;;;11.55;6.00;;;;;;;5.77;43.86;97738.63;4895089;28;20324;-86
2022/03/02 08:46:28;;;;;;;13.90;6.78;;;;;;;5.78;43.55;97742.03;4908549;28;20197;-86
2022/03/02 08:48:53;;;;;;;9.55;5.93;;;;;;;5.86;44.20;97743.59;4912674;28;20334;-86
2022/03/02 08:51:24;;;;;;;10.95;6.32;;;;;;;5.98;43.34;97742.03;4914251;28;20157;-86
2022/03/02 08:53:50;;;;;;;9.73;5.22;;;;;;;6.07;42.90;97740.84;4896925;28;20363;-86
2022/03/02 08:56:16;;;;;;;12.50;6.50;;;;;;;6.12;43.65;97737.66;4890226;28;21125;-86
2022/03/02 08:58:42;;;;;;;11.68;5.63;;;;;;;6.26;43.75;97734.03;4915528;28;20225;-86
2022/03/02 09:01:11;;;;;;;11.90;5.82;;;;;;;6.32;43.25;97738.41;4914383;28;20201;-86
2022/03/02 09:03:46;;;;;;;9.90;5.70;;;;;;;6.32;43.66;97738.41;4907316;28;20586;-86
2022/03/02 09:06:12;;;;;;;10.45;5.60;;;;;;;6.54;43.58;97733.75;4890959;28;20065;-86
2022/03/02 09:08:38;;;;;;;10.60;5.18;;;;;;;6.34;42.67;97730.41;4894524;28;20220;-86
2022/03/02 09:11:03;;;;;;;11.80;5.75;;;;;;;6.47;43.08;97721.84;4912899;28;20268;-85
2022/03/02 09:13:29;;;;;;;10.88;6.35;;;;;;;6.35;42.68;97726.84;4894010;28;20201;-86
2022/03/02 09:15:56;;;;;;;12.60;5.82;;;;;;;6.45;42.76;97742.75;4925324;28;20360;-85
2022/03/02 09:18:21;;;;;;;11.55;5.53;;;;;;;6.57;42.64;97724.78;4895056;28;20276;-86
2022/03/02 09:20:50;;;;;;;11.02;6.20;;;;;;;6.64;42.94;97732.53;4918840;28;20745;-86
2022/03/02 09:23:16;;;;;;;11.40;6.70;;;;;;;6.87;42.61;97742.38;4928855;28;20260;-86
2022/03/02 09:25:42;;;;;;;8.57;4.95;;;;;;;6.82;42.38;97740.44;4896700;28;20196;-86
2022/03/02 09:28:10;;;;;;;10.07;5.72;;;;;;;6.86;41.80;97741.59;4899583;28;20551;-86
2022/03/02 09:30:37;;;;;;;8.93;5.20;;;;;;;6.97;41.65;97740.16;4914878;28;20245;-86
2022/03/02 09:33:02;;;;;;;11.13;5.97;;;;;;;7.16;41.58;97748.03;4895659;28;20131;-85
2022/03/02 09:35:28;;;;;;;10.00;5.90;;;;;;;7.14;41.79;97740.47;4899654;28;20293;-85
2022/03/02 09:37:56;;;;;;;10.45;6.13;;;;;;;7.06;41.49;97743.28;4928877;28;20411;-86
2022/03/02 09:40:30;;;;;;;11.82;6.05;;;;;;;6.96;41.97;97748.13;4928576;28;20279;-86
2022/03/02 09:43:19;;;;;;;10.20;5.70;;;;;;;7.03;41.54;97751.50;4913580;28;20288;-86
2022/03/02 09:45:50;;;;;;;9.55;5.40;;;;;;;7.19;41.86;97738.03;4918070;28;20584;-85
2022/03/02 09:48:24;;;;;;;8.80;5.55;;;;;;;7.07;41.03;97740.50;4905886;28;20275;-86
2022/03/02 09:50:57;;;;;;;11.05;6.18;;;;;;;7.15;40.82;97747.25;4929813;28;20272;-85
2022/03/02 09:53:27;;;;;;;10.25;5.88;;;;;;;7.24;41.15;97737.41;4912546;28;20688;-85
2022/03/02 09:55:55;;;;;;;9.68;5.70;;;;;;;7.55;40.74;97741.78;4895708;28;20197;-85
2022/03/02 09:58:22;;;;;;;9.32;6.00;;;;;;;7.72;40.25;97747.25;4897325;28;20658;-86
2022/03/02 10:00:48;;;;;;;8.75;5.88;;;;;;;8.04;40.29;97752.38;4915150;28;20229;-85
2022/03/02 10:03:18;;;;;;;13.18;6.00;;;;;;;7.77;40.09;97750.00;4910535;28;20216;-85
2022/03/02 10:05:45;;;;;;;11.57;5.80;;;;;;;8.12;39.96;97746.91;4909424;28;20212;-85
2022/03/02 10:08:10;;;;;;;12.45;6.43;;;;;;;8.09;39.44;97738.75;4910598;28;20201;-86
2022/03/02 10:10:40;;;;;;;9.88;6.05;;;;;;;7.74;39.95;97747.03;4899515;28;20166;-86
2022/03/02 10:13:10;;;;;;;9.55;5.93;;;;;;;8.29;40.00;97748.94;4915392;28;20275;-87
2022/03/02 10:15:36;;;;;;;12.88;6.20;;;;;;;8.37;38.90;97744.28;4900327;28;20189;-86
2022/03/02 10:18:03;;;;;;;9.32;5.72;;;;;;;8.40;38.57;97749.03;4899637;28;20592;-87
2022/03/02 10:20:36;;;;;;;11.43;6.07;;;;;;;8.87;38.41;97739.97;4896339;28;20150;-86
2022/03/02 10:23:34;;;;;;;8.98;5.85;;;;;;;9.03;38.02;97744.56;4914299;28;20175;-86
2022/03/02 10:26:08;;;;;;;9.75;5.78;;;;;;;9.16;37.56;97740.97;4899241;28;20232;-86
2022/03/02 10:28:58;;;;;;;8.80;5.85;;;;;;;9.06;36.77;97736.28;4931311;28;20215;-86
2022/03/02 10:31:48;;;;;;;9.55;5.65;;;;;;;8.93;37.47;97734.69;4931835;28;20193;-87
2022/03/02 10:34:25;;;;;;;10.57;5.38;;;;;;;8.98;36.25;97734.03;4930159;28;20205;-87
2022/03/02 10:37:19;;;;;;;9.50;5.90;;;;;;;8.81;36.38;97729.44;4931040;28;20254;-85
2022/03/02 10:39:54;;;;;;;8.80;5.68;;;;;;;9.12;36.76;97726.84;4949336;28;20743;-86
2022/03/02 10:42:28;;;;;;;7.63;5.57;;;;;;;9.22;37.11;97727.13;4914703;28;20639;-87
2022/03/02 10:45:04;;;;;;;9.38;5.65;;;;;;;9.47;36.70;97728.75;4895489;28;20811;-86
2022/03/02 10:47:31;;;;;;;10.52;5.18;;;;;;;9.43;36.61;97712.03;4906324;28;20341;-86
2022/03/02 10:49:59;;;;;;;8.48;5.13;;;;;;;9.23;36.47;97722.69;4908582;28;20174;-85
2022/03/02 10:52:26;;;;;;;9.35;5.72;;;;;;;9.50;36.34;97725.69;4898301;28;20166;-86
2022/03/02 10:54:53;;;;;;;10.30;5.85;;;;;;;9.42;36.36;97719.00;4894337;28;20485;-86
2022/03/02 10:57:19;;;;;;;10.57;6.15;;;;;;;9.43;36.38;97714.63;4914156;28;20195;-86
2022/03/02 10:59:45;;;;;;;9.95;6.20;;;;;;;9.42;36.50;97713.03;4895226;28;20217;-86
2022/03/02 11:02:11;;;;;;;10.95;6.10;;;;;;;9.74;35.86;97713.53;4911324;28;20218;-85
2022/03/02 11:04:43;;;;;;;9.73;5.53;;;;;;;9.37;35.33;97711.09;4907549;28;20354;-85
2022/03/02 11:07:09;;;;;;;8.38;5.22;;;;;;;9.80;34.90;97704.84;4908916;28;20269;-85
2022/03/02 11:09:34;;;;;;;10.15;5.80;;;;;;;9.74;35.49;97713.53;4907028;28;20197;-86
2022/03/02 11:12:00;;;;;;;9.88;6.00;;;;;;;9.88;35.28;97711.50;4911655;28;20122;-86
2022/03/02 11:14:26;;;;;;;10.05;5.82;;;;;;;10.05;35.06;97706.41;4891192;28;20228;-85
2022/03/02 11:17:11;;;;;;;9.55;5.90;;;;;;;9.63;34.83;97709.09;4910114;28;20569;-86
2022/03/02 11:19:43;;;;;;;9.80;5.35;;;;;;;9.86;34.81;97711.72;4904354;28;20178;-87
2022/03/02 11:22:12;;;;;;;9.45;6.40;;;;;;;10.09;34.75;97713.53;4888581;28;20210;-87
2022/03/02 11:24:41;;;;;;;8.63;5.50;;;;;;;10.04;34.50;97705.63;4896498;28;20277;-86
2022/03/02 11:27:07;;;;;;;9.13;6.07;;;;;;;10.33;34.72;97699.72;4909515;28;20247;-86
2022/03/02 11:29:32;;;;;;;7.40;5.45;;;;;;;10.45;33.42;97706.50;4895526;28;20189;-85
2022/03/02 11:31:57;;;;;;;8.15;5.60;;;;;;;10.72;34.74;97695.53;4888080;28;20281;-85
2022/03/02 11:34:26;;;;;;;9.18;5.40;;;;;;;10.78;34.04;97691.19;4891821;28;20210;-86